Terminal Aerodrome Forecast
Issued by NWS

Home | Current Version | Previous Version | Text Only | Print | Product List | Glossary On
Versions: 1 2 3 4 5 6 7 8 9 10 11 12 13 14 15
950
FTUS43 KJKL 262336
TAFSME
TAF
KSME 262336Z 2700/2724 24006KT P6SM SCT050
     FM270300 VRB03KT P6SM VCTS BKN045CB
     FM270500 VRB03KT 3SM -SHRA BR VCTS BKN035CB OVC060
     FM271300 VRB03KT P6SM SCT025 BKN130
     FM271800 22008KT P6SM VCTS BKN035CB OVC130
     FM272200 VRB03KT P6SM SCT080=

USA.gov is the U.S. government's official web portal to all federal, state and local government web resources and services.